Time;durP1;ratioP1;P1;durP2;ratioP2;P2;SDS_P1;SDS_P2;PMS_P1;PMS_P2;Temp;Humidity;BMP_temperature;BMP_pressure;BME280_temperature;BME280_humidity;BME280_pressure;Samples;Min_cycle;Max_cycle;Signal;HPM_P1;HPM_P2
2021/04/03 00:00:36;;;;;;;1727.00;999.90;;;;;;;23.24;37.22;94546.22;5011246;28;25130;-74
2021/04/03 00:03:02;;;;;;;;;;;;;;;23.24;37.81;94543.50;5011577;28;19910;-73
2021/04/03 00:05:27;;;;;;;;;;;;;;;23.22;37.66;94542.56;5011561;28;20527;-74
2021/04/03 00:07:53;;;;;;;;;;;;;;;23.22;37.54;94537.09;5010755;28;19916;-74
2021/04/03 00:10:27;;;;;;;;;;;;;;;23.21;37.62;94535.63;5010848;28;20122;-73
2021/04/03 00:12:52;;;;;;;;;;;;;;;23.20;37.65;94529.44;5011415;28;19909;-75
2021/04/03 00:15:18;;;;;;;;;;;;;;;23.17;37.67;94514.16;5010301;28;19937;-75
2021/04/03 00:17:43;;;;;;;;;;;;;;;23.17;37.65;94514.16;5011135;28;20405;-74
2021/04/03 00:20:12;;;;;;;;;;;;;;;23.16;37.92;94518.13;5010781;28;19964;-74
2021/04/03 00:22:37;;;;;;;;;;;;;;;23.14;37.69;94519.91;5010241;28;19909;-74
2021/04/03 00:25:03;;;;;;;;;;;;;;;23.13;37.79;94519.16;5010642;28;20047;-74
2021/04/03 00:27:28;;;;;;;;;;;;;;;23.11;37.72;94521.66;5010417;28;20401;-74
2021/04/03 00:29:53;;;;;;;;;;;;;;;23.09;37.73;94513.28;5010061;28;24069;-74
2021/04/03 00:32:18;;;;;;;;;;;;;;;23.09;37.72;94524.19;5010814;28;19956;-74
2021/04/03 00:34:44;;;;;;;;;;;;;;;23.08;37.46;94516.53;5010058;28;19909;-74
2021/04/03 00:37:09;;;;;;;;;;;;;;;23.06;37.89;94508.13;5010244;28;20479;-74
2021/04/03 00:39:34;;;;;;;;;;;;;;;23.04;37.69;94500.47;5010001;28;20435;-74
2021/04/03 00:42:10;;;;;;;;;;;;;;;23.02;37.55;94503.00;5009478;28;24066;-74
2021/04/03 00:44:35;;;;;;;;;;;;;;;23.02;37.71;94503.00;5010367;28;24057;-74
2021/04/03 00:47:01;;;;;;;;;;;;;;;23.03;37.86;94512.66;5009461;28;25128;-74
2021/04/03 00:49:26;;;;;;;;;;;;;;;23.01;37.71;94512.41;5009861;28;19917;-74
2021/04/03 00:51:51;;;;;;;;;;;;;;;22.99;37.79;94509.47;5008213;28;24066;-75
2021/04/03 00:54:17;;;;;;;;;;;;;;;22.99;38.00;94504.03;5009884;28;19943;-74
2021/04/03 00:56:42;;;;;;;;;;;;;;;22.97;37.93;94506.56;5008741;28;19913;-74
2021/04/03 00:59:07;;;;;;;;;;;;;;;22.97;37.71;94506.56;5008723;28;19917;-74
2021/04/03 01:01:33;;;;;;;;;;;;;;;22.96;37.98;94504.34;5007866;28;25054;-73
2021/04/03 01:03:58;;;;;;;;;;;;;;;22.95;37.59;94503.59;5022741;28;20039;-74
2021/04/03 01:06:23;;;;;;;;;;;;;;;22.95;37.66;94509.03;5028356;28;19909;-74
2021/04/03 01:08:48;;;;;;;;;;;;;;;22.92;37.84;94504.59;5029091;28;20090;-74
2021/04/03 01:11:14;;;;;;;;;;;;;;;22.91;37.74;94497.69;5012456;28;19913;-74
2021/04/03 01:13:39;;;;;;;;;;;;;;;22.91;38.00;94503.16;5009912;28;19917;-74
2021/04/03 01:16:04;;;;;;;;;;;;;;;22.91;37.94;94492.25;5009126;28;20314;-73
2021/04/03 01:18:33;;;;;;;;;;;;;;;22.91;37.80;94496.94;5009281;28;19909;-74
2021/04/03 01:21:10;;;;;;;;;;;;;;;22.89;37.73;94494.00;5009049;28;24072;-73
2021/04/03 01:23:44;;;;;;;;;;;;;;;22.88;37.89;94487.09;5020268;28;24084;-74
2021/04/03 01:26:28;;;;;;;;;;;;;;;22.88;37.88;94491.81;5028960;28;19971;-73
2021/04/03 01:29:02;;;;;;;;;;;;;;;22.88;37.96;94497.25;5028759;28;19909;-74
2021/04/03 01:31:28;;;;;;;;;;;;;;;22.86;37.90;94488.88;5028895;28;24141;-74
2021/04/03 01:33:53;;;;;;;;;;;;;;;22.85;37.90;94481.97;5027514;28;19967;-74
2021/04/03 01:36:18;;;;;;;;;;;;;;;22.83;37.67;94484.47;5027458;28;20350;-74
2021/04/03 01:38:51;;;;;;;;;;;;;;;22.82;38.16;94485.72;5028222;28;24076;-74
2021/04/03 01:41:16;;;;;;;;;;;;;;;22.81;38.18;94476.06;5028131;28;20481;-74
2021/04/03 01:43:43;;;;;;;;;;;;;;;22.82;38.25;94485.72;5028546;28;19919;-74
2021/04/03 01:46:08;;;;;;;;;;;;;;;22.80;38.07;94475.34;5028507;28;24077;-74
2021/04/03 01:48:33;;;;;;;;;;;;;;;22.79;38.18;94473.13;5028017;28;24075;-74
2021/04/03 01:50:59;;;;;;;;;;;;;;;22.78;38.12;94477.84;5027045;28;19958;-74
2021/04/03 01:53:24;;;;;;;;;;;;;;;22.78;38.28;94477.09;5028075;28;20398;-74
2021/04/03 01:55:52;;;;;;;;;;;;;;;22.78;38.15;94477.09;5026853;28;24167;-74
2021/04/03 01:58:17;;;;;;;;;;;;;;;22.77;37.89;94464.75;5026686;28;24079;-74
2021/04/03 02:00:43;;;;;;;;;;;;;;;22.76;38.22;94466.00;5028368;28;19924;-74
2021/04/03 02:03:08;;;;;;;;;;;;;;;22.75;38.27;94461.81;5028012;28;25081;-75
2021/04/03 02:05:34;;;;;;;;;;;;;;;22.74;38.26;94457.63;5016481;28;19917;-74
2021/04/03 02:07:59;;;;;;;;;;;;;;;22.75;38.32;94467.25;5007874;28;19925;-74
2021/04/03 02:10:25;;;;;;;;;;;;;;;22.72;38.01;94462.84;5008238;28;19988;-74
2021/04/03 02:12:51;;;;;;;;;;;;;;;22.72;38.40;94462.84;5006773;28;20057;-75
2021/04/03 02:15:16;;;;;;;;;;;;;;;22.71;38.34;94455.94;5007107;28;20332;-74
2021/04/03 02:17:43;;;;;;;;;;;;;;;22.71;38.25;94455.94;5007027;28;19967;-74
2021/04/03 02:20:09;;;;;;;;;;;;;;;22.70;38.28;94454.47;5007983;28;24068;-74
2021/04/03 02:22:34;;;;;;;;;;;;;;;22.70;38.15;94460.63;5008046;28;20299;-75
2021/04/03 02:24:59;;;;;;;;;;;;;;;22.69;38.29;94447.53;5006735;28;20227;-73
2021/04/03 02:27:25;;;;;;;;;;;;;;;22.68;38.32;94451.53;5006612;28;19913;-75
2021/04/03 02:29:50;;;;;;;;;;;;;;;22.68;38.18;94451.53;5007103;28;20393;-74
2021/04/03 02:32:15;;;;;;;;;;;;;;;22.66;38.19;94448.59;5008023;28;19913;-74
2021/04/03 02:34:40;;;;;;;;;;;;;;;22.66;38.31;94454.03;5007850;28;19920;-73
2021/04/03 02:37:06;;;;;;;;;;;;;;;22.66;38.46;94449.34;5007641;28;19913;-74
2021/04/03 02:39:31;;;;;;;;;;;;;;;22.65;38.37;94447.13;5008055;28;20103;-74
2021/04/03 02:42:03;;;;;;;;;;;;;;;22.64;38.10;94456.53;5007096;28;19991;-74
2021/04/03 02:44:30;;;;;;;;;;;;;;;22.64;38.19;94442.94;5006935;28;19910;-74
2021/04/03 02:47:02;;;;;;;;;;;;;;;22.62;38.49;94446.16;5006265;28;19995;-74
2021/04/03 02:49:28;;;;;;;;;;;;;;;22.62;38.42;94437.28;5007568;28;19916;-74
2021/04/03 02:51:54;;;;;;;;;;;;;;;22.61;38.40;94433.09;5006622;28;19920;-74
2021/04/03 02:54:20;;;;;;;;;;;;;;;22.61;38.53;94435.81;5007103;28;19909;-74
2021/04/03 02:56:46;;;;;;;;;;;;;;;22.59;38.49;94428.16;5008013;28;19917;-74
2021/04/03 02:59:15;;;;;;;;;;;;;;;22.60;38.59;94434.31;5007967;28;19917;-74
2021/04/03 03:01:41;;;;;;;;;;;;;;;22.59;38.40;94422.00;5006174;28;19913;-73
2021/04/03 03:04:06;;;;;;;;;;;;;;;22.59;38.42;94432.88;5006072;28;19959;-74
2021/04/03 03:06:31;;;;;;;;;;;;;;;22.58;38.53;94428.66;5007673;28;24106;-74
2021/04/03 03:08:56;;;;;;;;;;;;;;;22.56;38.54;94425.75;5006570;28;24100;-74
2021/04/03 03:11:22;;;;;;;;;;;;;;;22.56;38.53;94428.47;5007464;28;19909;-75
2021/04/03 03:13:48;;;;;;;;;;;;;;;22.55;38.48;94422.28;5006218;28;19960;-73
2021/04/03 03:16:13;;;;;;;;;;;;;;;22.56;38.41;94417.59;5006118;28;20425;-74
2021/04/03 03:18:39;;;;;;;;;;;;;;;22.53;38.58;94413.91;5008328;28;19917;-74
2021/04/03 03:21:04;;;;;;;;;;;;;;;22.55;38.55;94421.53;5010373;28;19936;-75
2021/04/03 03:23:30;;;;;;;;;;;;;;;22.53;38.28;94407.72;5011407;28;19976;-73
2021/04/03 03:25:58;;;;;;;;;;;;;;;22.53;38.61;94405.00;5009668;28;20007;-74
2021/04/03 03:28:24;;;;;;;;;;;;;;;22.53;38.47;94413.19;5011744;28;19913;-74
2021/04/03 03:30:49;;;;;;;;;;;;;;;22.53;38.54;94415.91;5009714;28;19910;-73
2021/04/03 03:33:14;;;;;;;;;;;;;;;22.51;38.66;94415.66;5010988;28;25122;-76
2021/04/03 03:35:39;;;;;;;;;;;;;;;22.50;38.46;94414.22;5011200;28;24071;-74
2021/04/03 03:38:05;;;;;;;;;;;;;;;22.50;38.54;94408.78;5010096;28;19945;-73
2021/04/03 03:40:31;;;;;;;;;;;;;;;22.49;38.50;94415.44;5009523;28;24077;-75
2021/04/03 03:42:56;;;;;;;;;;;;;;;22.47;38.74;94421.41;5010914;28;19916;-75
2021/04/03 03:45:21;;;;;;;;;;;;;;;22.47;38.78;94420.69;5009551;28;24096;-75
2021/04/03 03:47:46;;;;;;;;;;;;;;;22.48;38.79;94419.41;5009469;28;19917;-76
2021/04/03 03:50:12;;;;;;;;;;;;;;;22.46;38.54;94414.50;4997579;28;25142;-75
2021/04/03 03:52:37;;;;;;;;;;;;;;;22.46;38.70;94414.50;4991430;28;19906;-73
2021/04/03 03:55:03;;;;;;;;;;;;;;;22.46;38.72;94413.75;4994304;28;20309;-76
2021/04/03 03:57:28;;;;;;;;;;;;;;;22.46;38.54;94430.09;5010174;28;24053;-76
2021/04/03 03:59:53;;;;;;;;;;;;;;;22.44;38.49;94421.72;5010562;28;20318;-75
2021/04/03 04:02:19;;;;;;;;;;;;;;;22.44;38.66;94424.44;5010251;28;24076;-75
2021/04/03 04:04:44;;;;;;;;;;;;;;;22.43;38.72;94426.44;5010467;28;24064;-75
2021/04/03 04:07:09;;;;;;;;;;;;;;;22.44;38.52;94421.72;5010588;28;25051;-76
2021/04/03 04:09:35;;;;;;;;;;;;;;;22.42;38.62;94422.22;5010463;28;19913;-75
2021/04/03 04:12:06;;;;;;;;;;;;;;;22.43;38.45;94420.25;5010662;28;20370;-75
2021/04/03 04:14:32;;;;;;;;;;;;;;;22.42;38.64;94413.34;5010374;28;24166;-74
2021/04/03 04:16:57;;;;;;;;;;;;;;;22.43;38.73;94420.25;5010201;28;20004;-75
2021/04/03 04:19:22;;;;;;;;;;;;;;;22.43;38.70;94425.69;5013210;28;19953;-76
2021/04/03 04:21:48;;;;;;;;;;;;;;;22.42;38.85;94424.22;5022985;28;20299;-75
2021/04/03 04:24:13;;;;;;;;;;;;;;;22.42;39.02;94424.22;5015025;28;19909;-74
2021/04/03 04:26:38;;;;;;;;;;;;;;;22.45;38.91;94423.16;5011251;28;20055;-76
2021/04/03 04:29:04;;;;;;;;;;;;;;;22.47;38.93;94423.41;5014802;28;19917;-76
2021/04/03 04:31:29;;;;;;;;;;;;;;;22.51;38.79;94427.28;5009388;28;25168;-73
2021/04/03 04:33:54;;;;;;;;;;;;;;;22.57;38.67;94424.47;5016821;28;24074;-76
2021/04/03 04:36:19;;;;;;;;;;;;;;;22.62;38.84;94421.69;5014482;28;19913;-76
2021/04/03 04:38:45;;;;;;;;;;;;;;;22.69;38.62;94425.78;5015742;28;24061;-76
2021/04/03 04:41:10;;;;;;;;;;;;;;;22.75;38.71;94429.16;5014924;28;20040;-77
2021/04/03 04:43:35;;;;;;;;;;;;;;;22.84;38.69;94426.03;5011483;28;19910;-78
2021/04/03 04:46:01;;;;;;;;;;;;;;;22.91;38.35;94426.91;5010775;28;24071;-77
2021/04/03 04:48:26;;;;;;;;;;;;;;;23.00;38.40;94440.16;5010897;28;19914;-78
2021/04/03 04:50:51;;;;;;;;;;;;;;;23.10;37.91;94433.03;5010166;28;19921;-76
2021/04/03 04:53:16;;;;;;;;;;;;;;;23.21;38.09;94449.19;5010862;28;24110;-75
2021/04/03 04:55:42;;;;;;;;;;;;;;;23.31;37.89;94436.63;5009565;28;25053;-76
2021/04/03 04:58:07;;;;;;;;;;;;;;;23.43;37.75;94437.91;5009413;28;19976;-78
2021/04/03 05:00:32;;;;;;;;;;;;;;;23.55;37.54;94439.16;5009175;28;20374;-74
2021/04/03 05:02:58;;;;;;;;;;;;;;;23.66;37.54;94438.97;5011025;28;19909;-76
2021/04/03 05:05:23;;;;;;;;;;;;;;;23.77;37.56;94438.78;5012885;28;20076;-76
2021/04/03 05:07:48;;;;;;;;;;;;;;;23.88;37.71;94439.28;5017619;28;24144;-75
2021/04/03 05:10:14;;;;;;;;;;;;;;;23.99;36.89;94433.59;5016033;28;20350;-76
2021/04/03 05:12:39;;;;;;;;;;;;;;;24.11;36.91;94434.84;5016818;28;19917;-76
2021/04/03 05:15:05;;;;;;;;;;;;;;;24.21;37.09;94431.16;5008729;28;19944;-75
2021/04/03 05:17:30;;;;;;;;;;;;;;;24.08;36.90;94400.44;5010790;28;24059;-73
2021/04/03 05:19:56;;;;;;;;;;;;;;;24.44;36.74;94434.91;5010177;28;25059;-77
2021/04/03 05:22:21;;;;;;;;;;;;;;;24.56;36.33;94430.66;5019028;28;19913;-76
2021/04/03 05:24:46;;;;;;;;;;;;;;;24.66;36.35;94428.94;5010586;28;20004;-76
2021/04/03 05:27:12;;;;;;;;;;;;;;;24.76;35.90;94427.22;5011308;28;20443;-77
2021/04/03 05:29:37;;;;;;;;;;;;;;;24.86;35.67;94421.50;5007514;28;20378;-76
2021/04/03 05:32:02;;;;;;;;;;;;;;;24.96;35.75;94433.41;5018069;28;20158;-76
2021/04/03 05:34:28;;;;;;;;;;;;;;;25.03;35.58;94432.75;5010237;28;20015;-76
2021/04/03 05:36:53;;;;;;;;;;;;;;;25.12;35.05;94445.97;5013327;28;19964;-77
2021/04/03 05:39:18;;;;;;;;;;;;;;;25.20;35.38;94438.56;5014922;28;19924;-76
2021/04/03 05:41:44;;;;;;;;;;;;;;;25.27;35.25;94437.88;5015547;28;24068;-76
2021/04/03 05:44:09;;;;;;;;;;;;;;;25.35;35.01;94433.19;5014266;28;25142;-76
2021/04/03 05:46:34;;;;;;;;;;;;;;;25.41;35.07;94431.06;5014309;28;24135;-76
2021/04/03 05:49:00;;;;;;;;;;;;;;;25.47;34.90;94434.38;5010232;28;24098;-75
2021/04/03 05:51:25;;;;;;;;;;;;;;;25.52;34.56;94425.31;5002500;28;19916;-76
2021/04/03 05:53:50;;;;;;;;;;;;;;;25.59;34.45;94430.06;5013194;28;19902;-76
2021/04/03 05:56:16;;;;;;;;;;;;;;;25.66;34.44;94435.63;5010611;28;20313;-75
2021/04/03 05:58:42;;;;;;;;;;;;;;;25.71;34.48;94437.50;5018690;28;24083;-76
2021/04/03 06:01:07;;;;;;;;;;;;;;;25.77;33.98;94440.06;5007562;28;19917;-76
2021/04/03 06:03:32;;;;;;;;;;;;;;;25.81;34.00;94439.19;5007349;28;20000;-76
2021/04/03 06:05:58;;;;;;;;;;;;;;;25.86;33.85;94443.78;5007996;28;19910;-76
2021/04/03 06:08:26;;;;;;;;;;;;;;;25.91;33.94;94439.44;5008126;28;24081;-76
2021/04/03 06:11:10;;;;;;;;;;;;;;;25.95;33.80;94440.53;5006010;28;19992;-74
2021/04/03 06:13:35;;;;;;;;;;;;;;;26.01;33.99;94443.13;5013342;28;24058;-75
2021/04/03 06:16:00;;;;;;;;;;;;;;;26.04;33.63;94437.31;5009077;28;20333;-76
2021/04/03 06:18:26;;;;;;;;;;;;;;;26.09;33.88;94439.16;5016891;28;19948;-76
2021/04/03 06:20:51;;;;;;;;;;;;;;;26.12;33.34;94431.88;5006537;28;19921;-75
2021/04/03 06:23:17;;;;;;;;;;;;;;;26.16;33.49;94432.97;5010519;28;25063;-76
2021/04/03 06:25:52;;;;;;;;;;;;;;;26.18;33.63;94441.38;5008041;28;25100;-78
2021/04/03 06:28:18;;;;;;;;;;;;;;;26.23;33.62;94432.25;5012321;28;20442;-79
2021/04/03 06:30:43;;;;;;;;;;;;;;;26.24;33.96;94420.03;5006903;28;20022;-76
2021/04/03 06:33:15;;;;;;;;;;;;;;;26.27;33.90;94425.19;5017394;28;20310;-76
2021/04/03 06:35:40;;;;;;;;;;;;;;;26.32;33.80;94429.78;5009706;28;20059;-74
2021/04/03 06:38:18;;;;;;;;;;;;;;;26.36;33.52;94423.94;5015250;28;19925;-74
2021/04/03 06:40:44;;;;;;;;;;;;;;;26.40;33.53;94424.34;5006515;28;19917;-81
2021/04/03 06:43:13;;;;;;;;;;;;;;;26.43;33.38;94423.25;5018166;28;19913;-80
2021/04/03 06:45:40;;;;;;;;;;;;;;;26.46;33.62;94427.66;5011251;28;19910;-80
2021/04/03 06:48:06;;;;;;;;;;;;;;;26.49;33.50;94426.56;5023249;28;19961;-80
2021/04/03 06:50:50;;;;;;;;;;;;;;;26.52;33.68;94425.47;5018252;28;19952;-80
2021/04/03 06:53:18;;;;;;;;;;;;;;;26.55;33.72;94427.13;5021167;28;24069;-78
2021/04/03 06:55:47;;;;;;;;;;;;;;;26.55;33.55;94429.84;5014638;28;20035;-79
2021/04/03 06:58:12;;;;;;;;;;;;;;;26.58;33.62;94423.28;5016713;28;24077;-79
2021/04/03 07:00:38;;;;;;;;;;;;;;;26.61;33.48;94417.44;5010849;28;20741;-78
2021/04/03 07:03:05;;;;;;;;;;;;;;;26.65;33.46;94417.09;5010141;28;19947;-79
2021/04/03 07:05:32;;;;;;;;;;;;;;;26.67;33.44;94411.81;5009192;28;19909;-75
2021/04/03 07:07:57;;;;;;;;;;;;;;;26.70;33.16;94407.97;5008467;28;19921;-78
2021/04/03 07:10:23;;;;;;;;;;;;;;;26.74;33.29;94405.59;5003957;28;19914;-76
2021/04/03 07:12:49;;;;;;;;;;;;;;;26.76;33.15;94409.97;5004423;28;25051;-76
2021/04/03 07:15:14;;;;;;;;;;;;;;;26.77;33.21;94411.47;5007236;28;25093;-75
2021/04/03 07:17:40;;;;;;;;;;;;;;;26.81;33.28;94413.81;5018237;28;24108;-77
2021/04/03 07:20:07;;;;;;;;;;;;;;;26.83;33.28;94403.78;5006945;28;20449;-77
2021/04/03 07:22:32;;;;;;;;;;;;;;;26.86;33.29;94399.97;5007710;28;24069;-73
2021/04/03 07:24:58;;;;;;;;;;;;;;;26.88;33.32;94402.88;5008703;28;20314;-78
2021/04/03 07:27:23;;;;;;;;;;;;;;;26.89;33.06;94398.91;5008687;28;20700;-75
2021/04/03 07:29:50;;;;;;;;;;;;;;;26.95;33.42;94404.19;5011792;28;19910;-76
2021/04/03 07:32:36;;;;;;;;;;;;;;;26.94;33.34;94408.94;5010751;28;24074;-77
2021/04/03 07:35:22;;;;;;;;;;;;;;;26.94;33.13;94406.19;5005826;28;19968;-76
2021/04/03 07:37:47;;;;;;;;;;;;;;;26.93;33.08;94393.75;5004598;28;24090;-77
2021/04/03 07:40:13;;;;;;;;;;;;;;;26.93;32.99;94388.28;5004074;28;24066;-76
2021/04/03 07:42:39;;;;;;;;;;;;;;;26.95;33.06;94380.25;5010459;28;19917;-76
2021/04/03 07:45:05;;;;;;;;;;;;;;;26.97;32.91;94394.13;5005278;28;24065;-75
2021/04/03 07:47:30;;;;;;;;;;;;;;;26.98;32.69;94390.13;5009541;28;20008;-76
2021/04/03 07:49:56;;;;;;;;;;;;;;;26.98;32.70;94390.13;4999713;28;19964;-77
2021/04/03 07:52:41;;;;;;;;;;;;;;;26.98;32.76;94384.66;5006168;28;24072;-76
2021/04/03 07:55:45;;;;;;;;;;;;;;;27.00;32.75;94387.56;4994700;28;20306;-77
2021/04/03 07:58:19;;;;;;;;;;;;;;;27.01;32.86;94383.56;4989161;28;19933;-77
2021/04/03 08:00:48;;;;;;;;;;;;;;;27.00;32.80;94376.59;4985007;28;24084;-77
2021/04/03 08:03:13;;;;;;;;;;;;;;;27.02;33.03;94379.50;4996811;28;25151;-76
2021/04/03 08:05:38;;;;;;;;;;;;;;;27.02;32.58;94379.50;5008596;28;20803;-76
2021/04/03 08:08:05;;;;;;;;;;;;;;;27.03;32.28;94378.25;5020356;28;19979;-76
2021/04/03 08:10:30;;;;;;;;;;;;;;;27.02;32.67;94378.78;5009622;28;24110;-76
2021/04/03 08:12:55;;;;;;;;;;;;;;;27.02;32.41;94379.50;5022253;28;20372;-77
2021/04/03 08:15:21;;;;;;;;;;;;;;;27.01;32.56;94371.84;5010538;28;19917;-77
2021/04/03 08:17:52;;;;;;;;;;;;;;;27.02;32.18;94378.78;5012197;28;19968;-76
2021/04/03 08:20:18;;;;;;;;;;;;;;;27.02;32.54;94374.03;5009719;28;24069;-76
2021/04/03 08:23:02;;;;;;;;;;;;;;;26.66;32.46;94314.47;5011007;28;25103;-76
2021/04/03 08:25:27;;;;;;;;;;;;;;;27.03;32.29;94363.81;5009418;28;19915;-76
2021/04/03 08:27:53;;;;;;;;;;;;;;;27.03;32.35;94370.03;5021972;28;20706;-77
2021/04/03 08:30:21;;;;;;;;;;;;;;;27.01;32.61;94372.59;5010796;28;19916;-76
2021/04/03 08:33:05;;;;;;;;;;;;;;;27.02;32.51;94363.06;5021222;28;20397;-76
2021/04/03 08:35:31;;;;;;;;;;;;;;;26.93;32.67;94338.97;5009667;28;24078;-77
2021/04/03 08:38:06;;;;;;;;;;;;;;;27.05;32.40;94361.25;5024507;28;25097;-76
2021/04/03 08:40:31;;;;;;;;;;;;;;;27.05;32.28;94367.47;5008869;28;19917;-76
2021/04/03 08:42:57;;;;;;;;;;;;;;;27.05;32.34;94367.47;5022993;28;25072;-77
2021/04/03 08:45:22;;;;;;;;;;;;;;;27.06;32.25;94352.47;5009343;28;24058;-76
2021/04/03 08:47:49;;;;;;;;;;;;;;;27.06;32.45;94352.47;5014996;28;25071;-77
2021/04/03 08:50:14;;;;;;;;;;;;;;;27.08;32.12;94349.91;5013964;28;19912;-77
2021/04/03 08:52:40;;;;;;;;;;;;;;;27.08;32.18;94343.72;5013920;28;20317;-77
2021/04/03 08:55:05;;;;;;;;;;;;;;;27.08;32.21;94341.69;5009498;28;19932;-77
2021/04/03 08:57:31;;;;;;;;;;;;;;;27.08;32.32;94327.97;5014244;28;20134;-77
2021/04/03 08:59:56;;;;;;;;;;;;;;;27.08;32.34;94327.97;5016684;28;24113;-77
2021/04/03 09:02:21;;;;;;;;;;;;;;;27.08;32.49;94330.72;5014808;28;20404;-77
2021/04/03 09:04:47;;;;;;;;;;;;;;;27.02;32.16;94324.69;5018371;28;19909;-76
2021/04/03 09:07:12;;;;;;;1364.17;907.23;;;;;;;26.90;32.64;94318.13;5010841;28;20386;-77
2021/04/03 09:09:40;;;;;;;10.10;6.65;;;;;;;26.76;32.55;94313.38;5010297;28;20034;-76
2021/04/03 09:12:08;;;;;;;12.27;7.00;;;;;;;26.64;33.03;94303.34;5010121;28;20029;-77
2021/04/03 09:14:35;;;;;;;14.77;8.25;;;;;;;25.96;33.17;94225.13;5024744;28;20026;-77
2021/04/03 09:17:01;;;;;;;103.50;71.50;;;;;;;26.28;33.37;94272.63;5012105;28;20041;-76
2021/04/03 09:19:30;;;;;;;;;;;;;;;26.52;33.30;94296.75;5013576;28;19914;-75
2021/04/03 09:21:56;;;;;;;;;;;;;;;26.55;33.45;94298.41;5012263;28;19956;-75
2021/04/03 09:24:46;;;;;;;9.52;4.53;;;;;;;26.58;33.29;94289.09;5016629;28;20061;-75
2021/04/03 09:27:18;;;;;;;9.82;4.97;;;;;;;26.61;33.34;94301.69;5012907;28;20623;-74
2021/04/03 09:29:46;;;;;;;8.63;4.80;;;;;;;26.59;33.37;94298.75;5009457;28;20038;-75
2021/04/03 09:32:12;;;;;;;9.23;4.70;;;;;;;26.66;33.30;94292.56;5006732;28;20168;-74
2021/04/03 09:34:38;;;;;;;8.25;3.90;;;;;;;26.69;33.42;94285.97;5008530;28;20025;-73
2021/04/03 09:37:20;;;;;;;7.65;4.28;;;;;;;26.33;33.33;94216.97;5009226;28;20038;-74
2021/04/03 09:39:46;;;;;;;22.90;20.45;;;;;;;26.75;33.07;94273.53;5008016;28;20052;-73
2021/04/03 09:42:13;;;;;;;5.97;4.00;;;;;;;26.32;33.20;94204.53;5006080;28;20422;-74
2021/04/03 09:44:38;;;;;;;7.00;4.38;;;;;;;25.99;33.36;94156.38;5007327;28;20041;-74
2021/04/03 09:47:04;;;;;;;6.68;4.53;;;;;;;26.80;33.43;94265.16;5011393;28;20438;-73
2021/04/03 09:49:29;;;;;;;6.45;4.20;;;;;;;26.83;33.24;94258.56;5012234;28;20068;-74
2021/04/03 09:51:57;;;;;;;6.20;4.20;;;;;;;26.83;33.36;94239.38;5010604;28;20026;-73
2021/04/03 09:54:22;;;;;;;6.75;4.50;;;;;;;26.43;33.50;94185.03;5008705;28;20021;-74
2021/04/03 09:56:48;;;;;;;7.63;4.55;;;;;;;26.66;33.37;94199.41;5006398;28;20030;-74
2021/04/03 09:59:14;;;;;;;6.20;4.00;;;;;;;26.85;33.11;94228.59;5008519;28;20030;-73
2021/04/03 10:01:40;;;;;;;23.83;18.17;;;;;;;26.92;33.14;94244.34;5008635;28;20033;-73
2021/04/03 10:04:05;;;;;;;231.05;138.13;;;;;;;26.95;33.20;94237.00;5008182;28;20029;-72
2021/04/03 10:06:31;;;;;;;551.22;354.73;;;;;;;26.95;33.17;94231.53;5010334;28;20029;-72
2021/04/03 10:08:56;;;;;;;564.42;385.60;;;;;;;26.95;33.02;94232.28;5008257;28;20022;-72
2021/04/03 10:11:22;;;;;;;6.60;4.13;;;;;;;26.97;32.99;94229.69;5018828;28;20017;-74
2021/04/03 10:13:47;;;;;;;6.45;3.95;;;;;;;26.90;33.47;94208.53;5008277;28;20487;-72
2021/04/03 10:16:13;;;;;;;7.22;4.10;;;;;;;27.00;32.97;94217.63;5008736;28;20088;-73
2021/04/03 10:18:38;;;;;;;6.50;4.40;;;;;;;26.99;33.15;94221.66;5010053;28;20041;-73
2021/04/03 10:21:04;;;;;;;5.95;4.50;;;;;;;27.01;32.92;94221.84;5009486;28;20029;-72
2021/04/03 10:23:29;;;;;;;6.22;4.35;;;;;;;27.01;33.16;94229.31;5008876;28;20053;-74
2021/04/03 10:25:55;;;;;;;9.38;6.35;;;;;;;26.91;33.03;94204.50;5008065;28;20051;-73
2021/04/03 10:28:20;;;;;;;5.45;4.28;;;;;;;27.01;33.25;94219.09;5009847;28;20491;-73
2021/04/03 10:30:47;;;;;;;28.88;20.65;;;;;;;26.86;33.02;94194.44;5001291;28;20026;-73
2021/04/03 10:33:13;;;;;;;9.13;7.55;;;;;;;27.03;33.16;94204.84;5030505;28;20018;-74
2021/04/03 10:35:38;;;;;;;70.72;58.33;;;;;;;27.01;33.11;94213.63;5008213;28;20029;-74
2021/04/03 10:38:04;;;;;;;770.60;563.95;;;;;;;26.98;33.39;94209.25;5017770;28;20095;-73
2021/04/03 10:40:29;;;;;;;;;;;;;;;27.02;32.91;94204.09;5006955;28;20128;-74
2021/04/03 10:42:54;;;;;;;;;;;;;;;26.98;33.09;94209.25;5010754;28;20050;-74
2021/04/03 10:45:20;;;;;;;;;;;;;;;27.01;32.92;94210.13;5006765;28;20326;-74
2021/04/03 10:47:45;;;;;;;;;;;;;;;26.99;32.84;94210.69;5013337;28;19920;-73
2021/04/03 10:50:11;;;;;;;;;;;;;;;27.01;33.01;94227.34;5006803;28;24141;-74
2021/04/03 10:52:36;;;;;;;;;;;;;;;27.01;33.07;94268.44;5009512;28;25141;-73
2021/04/03 10:55:01;;;;;;;;;;;;;;;27.03;33.12;94276.84;5006726;28;20036;-74
2021/04/03 10:57:26;;;;;;;;;;;;;;;27.04;33.01;94305.72;5008911;28;19920;-74
2021/04/03 10:59:52;;;;;;;;;;;;;;;27.03;33.18;94249.44;5013494;28;19913;-74
2021/04/03 11:02:17;;;;;;;;;;;;;;;27.03;33.31;94245.97;5010212;28;20015;-74
2021/04/03 11:04:42;;;;;;;;;;;;;;;27.01;33.47;94268.44;5007505;28;19909;-75
2021/04/03 11:07:08;;;;;;;;;;;;;;;27.01;33.72;94273.91;5008050;28;19922;-73
2021/04/03 11:09:33;;;;;;;;;;;;;;;27.00;33.76;94286.16;5008254;28;19917;-73
2021/04/03 11:11:58;;;;;;;;;;;;;;;26.99;33.74;94284.69;5008686;28;19922;-73
2021/04/03 11:14:24;;;;;;;;;;;;;;;26.99;33.81;94257.28;5019283;28;24143;-73
2021/04/03 11:16:49;;;;;;;;;;;;;;;26.99;33.80;94270.97;5006039;28;24082;-73
2021/04/03 11:19:14;;;;;;;;;;;;;;;26.99;33.89;94265.50;5003726;28;25067;-73
2021/04/03 11:21:40;;;;;;;;;;;;;;;26.98;33.79;94253.09;5010102;28;20325;-73
2021/04/03 11:24:05;;;;;;;;;;;;;;;26.96;33.95;94260.41;5006752;28;19940;-73
2021/04/03 11:26:30;;;;;;;;;;;;;;;26.95;33.88;94265.16;5002179;28;19920;-74
2021/04/03 11:28:56;;;;;;;;;;;;;;;26.93;34.04;94229.34;5008408;28;24153;-73
2021/04/03 11:31:22;;;;;;;;;;;;;;;26.90;34.03;94230.44;5007783;28;19917;-74
2021/04/03 11:33:47;;;;;;;;;;;;;;;26.93;33.87;94232.06;5005604;28;19913;-73
2021/04/03 11:36:12;;;;;;;;;;;;;;;26.93;33.66;94221.13;5006124;28;25071;-74
2021/04/03 11:38:38;;;;;;;;;;;;;;;26.93;33.73;94223.84;5009772;28;25124;-74
2021/04/03 11:41:03;;;;;;;;;;;;;;;26.91;33.72;94220.94;5009421;28;20341;-74
2021/04/03 11:43:28;;;;;;;;;;;;;;;26.91;33.95;94210.00;5017798;28;19917;-73
2021/04/03 11:45:54;;;;;;;;;;;;;;;26.91;33.84;94203.78;5010467;28;24082;-73
2021/04/03 11:48:19;;;;;;;872.50;655.43;;;;;;;26.90;33.81;94197.56;5019940;28;19915;-73
2021/04/03 11:50:46;;;;;;;1595.10;999.90;;;;;;;26.47;33.77;94149.78;5010792;28;20230;-73
2021/04/03 11:53:12;;;;;;;1634.70;999.90;;;;;;;26.86;33.90;94202.66;5015126;28;20029;-73
2021/04/03 11:55:38;;;;;;;1655.70;999.90;;;;;;;26.87;33.56;94214.34;4993493;28;20026;-73
2021/04/03 11:58:03;;;;;;;;;;;;;;;26.85;33.73;94201.19;5014159;28;20400;-73
2021/04/03 12:00:28;;;;;;;;;;;;;;;26.86;33.95;94202.66;5006385;28;19917;-74
2021/04/03 12:02:54;;;;;;;;;;;;;;;26.82;33.88;94196.81;5013900;28;19961;-73
2021/04/03 12:05:19;;;;;;;;;;;;;;;26.83;34.01;94220.22;5009883;28;19920;-73
2021/04/03 12:07:44;;;;;;;;;;;;;;;26.82;33.69;94202.31;5012560;28;20000;-73
2021/04/03 12:10:11;;;;;;;;;;;;;;;26.82;33.68;94188.59;5011046;28;19932;-72
2021/04/03 12:12:38;;;;;;;;;;;;;;;26.80;34.06;94185.69;5009469;28;20306;-73
2021/04/03 12:15:04;;;;;;;;;;;;;;;26.80;33.87;94190.44;5005093;28;20064;-73
2021/04/03 12:17:30;;;;;;;;;;;;;;;26.81;33.91;94184.41;5014962;28;20401;-73
2021/04/03 12:19:55;;;;;;;;;;;;;;;26.80;33.81;94191.19;5011336;28;19924;-73
2021/04/03 12:22:22;;;;;;;;;;;;;;;26.80;33.79;94177.47;5015053;28;25048;-74
2021/04/03 12:24:47;;;;;;;;;;;;;;;26.80;33.53;94185.69;5009483;28;20076;-73
2021/04/03 12:27:12;;;;;;;;;;;;;;;26.79;33.93;94186.97;5013435;28;19952;-72
2021/04/03 12:29:37;;;;;;;;;;;;;;;26.77;33.89;94189.53;5014865;28;19921;-76